ADDS METAR Data INFO
IDs: Format: Raw Decoded Include TAF

Data at: 1716 UTC 23 Oct 2017

KDYT 231714Z AUTO 23008KT 10SM CLR 16/07 A2969 RMK AO2
KDYT 231654Z AUTO 21007KT 10SM SCT075 16/07 A2969 RMK AO2
KDYT 231633Z AUTO 22011KT 10SM SCT075 SCT100 15/06 A2969 RMK AO2
KDYT 231614Z AUTO 22010KT 10SM CLR 15/06 A2969 RMK AO2
KDYT 231553Z AUTO 23010G15KT 10SM CLR 14/06 A2970 RMK AO2
KDYT 231533Z AUTO 22012KT 10SM CLR 14/06 A2969 RMK AO2
KDYT 231514Z AUTO 23011KT 10SM CLR 14/05 A2969 RMK AO2
KDYT 231453Z AUTO 22011KT 10SM CLR 13/04 A2968 RMK AO2
KDYT 231434Z AUTO 22011KT 10SM CLR 13/04 A2968 RMK AO2
KDYT 231414Z AUTO 21013KT 10SM CLR 13/05 A2969 RMK AO2
KDYT 231358Z AUTO 21011KT 10SM CLR 13/05 A2970 RMK AO2
KDYT 231334Z AUTO 21009G14KT 10SM SCT080 SCT110 12/05 A2970 RMK AO2
KDYT 231314Z AUTO 20009KT 10SM BKN090 BKN110 12/05 A2969 RMK AO2
KDYT 231253Z AUTO 22008KT 10SM OVC090 13/04 A2970 RMK AO2
KDYT 231234Z AUTO 22010KT 10SM OVC090 13/04 A2970 RMK AO2
KDYT 231214Z AUTO 21011G14KT 10SM BKN100 120 13/04 A2969 RMK AO2
KDYT 231153Z AUTO 21007KT 10SM BKN110 13/04 A2969 RMK AO2
KDYT 231134Z AUTO 21011KT 10SM SCT120 13/04 A2970 RMK AO2
KDYT 231114Z AUTO 21011KT 10SM BKN110 13/03 A2970 RMK AO2
KDYT 231053Z AUTO 22009KT 10SM OVC110 13/04 A2971 RMK AO2
KDYT 231034Z AUTO 21007KT 10SM OVC100 13/03 A2971 RMK AO2
KDYT 231014Z AUTO 20006KT 10SM -RA SCT080 OVC100 13/03 A2972 RMK AO2
KDYT 230953Z AUTO 22005KT 10SM OVC100 13/03 A2973 RMK AO2
KDYT 230934Z AUTO 19008KT 10SM OVC100 13/03 A2973 RMK AO2
KDYT 230913Z AUTO 24006KT 10SM OVC100 13/03 A2975 RMK AO2
KDYT 230854Z AUTO 21007KT 10SM BKN100 13/03 A2975 RMK AO2
KDYT 230834Z AUTO 21007KT 10SM SCT100 13/03 A2975 RMK AO2
KDYT 230813Z AUTO 20008KT 10SM CLR 13/03 A2976 RMK AO2
KDYT 230754Z AUTO 20011KT 10SM CLR 13/03 A2977 RMK AO2
KDYT 230734Z AUTO 17012KT 10SM SCT075 BKN090 13/02 A2976 RMK AO2
KDYT 230713Z AUTO 18007KT 10SM BKN075 OVC085 13/03 A2978 RMK AO2
KDYT 230654Z AUTO 24006KT 10SM BKN075 OVC090 13/03 A2980 RMK AO2
KDYT 230633Z AUTO 20011KT 10SM SCT075 BKN090 BKN110 14/02 A2980 RMK AO2
KDYT 230614Z AUTO 20011G17KT 10SM BKN090 OVC110 14/02 A2980 RMK AO2
KDYT 230554Z AUTO 20012KT 10SM SCT075 OVC100 14/02 A2981 RMK AO2
KDYT 230533Z AUTO 23005KT 10SM SCT075 OVC090 13/04 A2982 RMK AO2
KDYT 230514Z AUTO 21006KT 10SM OVC090 13/02 A2982 RMK AO2
KDYT 230454Z AUTO 22004KT 10SM SCT075 OVC090 13/03 A2984 RMK AO2
KDYT 230433Z AUTO 23003KT 10SM SCT075 OVC090 12/04 A2985 RMK AO2
KDYT 230414Z AUTO 00000KT 10SM OVC090 12/03 A2984 RMK AO2
KDYT 230353Z AUTO 00000KT 10SM BKN080 OVC100 11/04 A2985 RMK AO2
KDYT 230334Z AUTO 25003KT 10SM BKN110 11/04 A2986 RMK AO2
KDYT 230313Z AUTO 21006KT 10SM BKN110 12/03 A2986 RMK AO2
KDYT 230254Z AUTO 20006KT 10SM SCT110 12/03 A2986 RMK AO2
KDYT 230233Z AUTO 20008KT 10SM CLR 12/02 A2987 RMK AO2
KDYT 230214Z AUTO 19009KT 10SM CLR 12/03 A2988 RMK AO2
KDYT 230153Z AUTO 17007KT 10SM CLR 12/02 A2988 RMK AO2
KDYT 230134Z AUTO 19009KT 10SM CLR 12/02 A2988 RMK AO2
KDYT 230114Z AUTO 18010KT 10SM CLR 13/03 A2989 RMK AO2
KDYT 230053Z AUTO 18010KT 10SM CLR 13/03 A2988 RMK AO2
KDYT 230034Z AUTO 18008KT 10SM CLR 13/02 A2988 RMK AO2
KDYT 230014Z AUTO 19008KT 10SM CLR 13/03 A2988 RMK AO2
KDYT 222353Z AUTO 20008KT 10SM CLR 14/02 A2988 RMK AO2
KDYT 222334Z AUTO 20007KT 10SM CLR 14/02 A2988 RMK AO2
KDYT 222314Z AUTO 22007KT 10SM CLR 14/02 A2987 RMK AO2
KDYT 222253Z AUTO 22008KT 10SM CLR 15/02 A2987 RMK AO2
KDYT 222234Z AUTO 22007KT 10SM CLR 16/01 A2987 RMK AO2
KDYT 222214Z AUTO 24010KT 10SM CLR 16/M01 A2987 RMK AO2
KDYT 222154Z AUTO 24013KT 10SM CLR 16/M01 A2986 RMK AO2
KDYT 222133Z AUTO 25010G16KT 10SM CLR 16/01 A2986 RMK AO2
KDYT 222114Z AUTO 23014G20KT 10SM CLR 16/M01 A2986 RMK AO2
KDYT 222054Z AUTO 24011KT 10SM CLR 16/01 A2986 RMK AO2
KDYT 222033Z AUTO 24012KT 10SM CLR 16/M01 A2986 RMK AO2
KDYT 222014Z AUTO 25012G19KT 10SM CLR 16/01 A2986 RMK AO2
KDYT 221953Z AUTO 25014G18KT 10SM CLR 16/01 A2986 RMK AO2
KDYT 221934Z AUTO 24012KT 10SM CLR 16/02 A2987 RMK AO2
KDYT 221914Z AUTO 26013G21KT 10SM CLR 16/02 A2987 RMK AO2
KDYT 221853Z AUTO 24014G20KT 10SM CLR 15/03 A2987 RMK AO2
KDYT 221834Z AUTO 23013KT 10SM CLR 14/05 A2987 RMK AO2
KDYT 221814Z AUTO 25014KT 10SM CLR 14/04 A2989 RMK AO2
KDYT 221753Z AUTO 26017G20KT 10SM CLR 13/05 A2989 RMK AO2
KDYT 221734Z AUTO 24007KT 10SM CLR 12/06 A2990 RMK AO2
KDYT 221713Z AUTO 24009KT 10SM CLR 12/06 A2991 RMK AO2
KDYT 221654Z AUTO 23013G16KT 10SM CLR 11/06 A2991 RMK AO2
KDYT 221634Z AUTO 23011KT 10SM CLR 11/07 A2991 RMK AO2
KDYT 221613Z AUTO 23013G18KT 10SM CLR 11/07 A2991 RMK AO2
KDYT 221554Z AUTO 23012KT 10SM CLR 11/07 A2991 RMK AO2
KDYT 221534Z AUTO 23011G17KT 10SM CLR 11/07 A2989 RMK AO2
KDYT 221513Z AUTO 22010KT 10SM CLR 10/07 A2989 RMK AO2
KDYT 221454Z AUTO 21011KT 10SM CLR 10/07 A2989 RMK AO2
KDYT 221434Z AUTO 21008KT 10SM CLR 10/07 A2989 RMK AO2
KDYT 221413Z AUTO 21008KT 10SM CLR 09/07 A2988 RMK AO2
KDYT 221354Z AUTO 22008KT 10SM CLR 09/07 A2988 RMK AO2
KDYT 221334Z AUTO 21010KT 10SM CLR 09/07 A2987 RMK AO2
KDYT 221313Z AUTO 21010KT 10SM CLR 09/07 A2986 RMK AO2
KDYT 221254Z AUTO 22009KT 10SM CLR 09/07 A2985 RMK AO2
KDYT 221234Z AUTO 21009KT 10SM CLR 09/07 A2983 RMK AO2
KDYT 221213Z AUTO 21011KT 10SM CLR 09/07 A2983 RMK AO2
KDYT 221154Z AUTO 21010KT 10SM CLR 09/07 A2982 RMK AO2
KDYT 221134Z AUTO 22011KT 10SM CLR 10/08 A2981 RMK AO2
KDYT 221113Z AUTO 23012KT 10SM CLR 10/08 A2981 RMK AO2
KDYT 221054Z AUTO 23013G17KT 10SM CLR 10/08 A2981 RMK AO2
KDYT 221033Z AUTO 23012G17KT 10SM CLR 10/08 A2980 RMK AO2
KDYT 221014Z AUTO 23011KT 10SM CLR 10/08 A2980 RMK AO2
KDYT 220954Z AUTO 22010KT 10SM CLR 10/08 A2979 RMK AO2
KDYT 220933Z AUTO 22011KT 10SM CLR 10/08 A2978 RMK AO2
KDYT 220914Z AUTO 22010KT 10SM CLR 11/08 A2979 RMK AO2
KDYT 220854Z AUTO 22011KT 10SM CLR 11/08 A2978 RMK AO2
KDYT 220833Z AUTO 22010KT 10SM CLR 11/08 A2977 RMK AO2
KDYT 220814Z AUTO 22009KT 10SM CLR 11/09 A2977 RMK AO2
KDYT 220754Z AUTO 23012KT 10SM CLR 11/09 A2977 RMK AO2
KDYT 220733Z AUTO 22008KT 10SM CLR 12/09 A2976 RMK AO2
KDYT 220714Z AUTO 23015KT 10SM CLR 12/09 A2976 RMK AO2
KDYT 220653Z AUTO 24012KT 10SM CLR 12/10 A2976 RMK AO2
KDYT 220634Z AUTO 24011KT 10SM SCT024 BKN090 12/10 A2976 RMK AO2
KDYT 220614Z AUTO 24012KT 10SM BKN024 BKN090 12/11 A2976 RMK AO2
KDYT 220553Z AUTO 23012KT 10SM SCT044 OVC090 12/11 A2975 RMK AO2
KDYT 220534Z AUTO 23010KT 10SM SCT036 BKN044 OVC080 12/11 A2974 RMK AO2